Flight Track Log - Related Links

Times and Time Zones

All times are in EDT time to prevent confusion due to time zone crossing. See the OPT429 flight status page for this flight to view local times or setup timezone preferences in your user account.

Time Position Orientation Groundspeed Altitude Reporting Facility
EDT Latitude Longitude Course Direction KTS MPH feet Rate Location/Type
Tue 11:57:42 36.0736 -115.1664 253° West 147 169 3,100  Level Los Angeles Center
Tue 11:58:49 36.0158 -115.2092 211° Southwest 246 283 5,700 2,455 Climbing Los Angeles Center
Tue 11:59:10 36.0053 -115.2289 237° Southwest 232 267 6,700 2,754 Climbing Los Angeles Center
Tue 11:59:50 35.9772 -115.2803 236° Southwest 259 298 8,500 2,903 Climbing Los Angeles Center
Tue 12:00:12 35.9597 -115.3061 230° Southwest 256 295 9,700 2,357 Climbing Los Angeles Center
Tue 12:01:14 35.9308 -115.3894 247° West 271 312 11,800 2,064 Climbing Los Angeles Center
Tue 12:02:17 35.9236 -115.4964 265° West 288 331 14,000 2,064 Climbing Los Angeles Center
Tue 12:03:00 35.9522 -115.6746 253° West  Level FlightAware Approximate
Tue 12:03:19 35.9183 -115.5972 266° West 294 338 16,100  Level Los Angeles Center
Tue 12:05:23 35.9053 -115.8106 266° West 300 345 20,800 2,161 Climbing Los Angeles Center
Tue 12:06:25 35.9017 -115.9139 268° West 305 351 22,800 1,839 Climbing Los Angeles Center
Tue 12:07:27 35.9361 -115.9978 297° West 309 356 24,600 1,728 Climbing Los Angeles Center
Tue 12:08:30 36.0208 -116.0769 323° Northwest 340 391 26,400 1,776 Climbing Los Angeles Center
Tue 12:09:32 36.1017 -116.1456 326° Northwest 347 399 28,300 1,742 Climbing Los Angeles Center
Tue 12:10:34 36.1892 -116.2186 326° Northwest 354 407 30,000 823 Climbing Los Angeles Center
Tue 12:11:36 36.2739 -116.2917 325° Northwest 367 422 30,000  Level Los Angeles Center
Tue 12:12:38 36.3561 -116.3625 325° Northwest 364 419 30,000  Level Los Angeles Center
Tue 12:13:40 36.4494 -116.4417 326° Northwest 341 392 30,000  Level Los Angeles Center
Tue 12:14:43 36.5247 -116.5067 325° Northwest 332 382 30,000  Level Los Angeles Center
Tue 12:15:45 36.5953 -116.5681 325° Northwest 326 375 30,000  Level Los Angeles Center
Tue 12:16:47 36.6669 -116.6306 325° Northwest 318 366 30,000  Level Los Angeles Center
Tue 12:17:49 36.7519 -116.7036 325° Northwest 310 357 30,000  Level Los Angeles Center
Tue 12:18:51 36.8219 -116.7653 325° Northwest 309 356 30,000  Level Los Angeles Center
Tue 12:19:53 36.8922 -116.8228 327° Northwest 302 348 30,000  Level Los Angeles Center
Tue 12:20:56 36.9619 -116.8814 326° Northwest 302 348 30,000  Level Los Angeles Center
Tue 12:21:58 37.0311 -116.9389 326° Northwest 300 345 30,000  Level Los Angeles Center
Tue 12:23:00 37.0989 -116.9983 325° Northwest 298 343 30,000  Level Los Angeles Center
Tue 12:24:03 37.1819 -117.0686 326° Northwest 297 342 30,000  Level Los Angeles Center
Tue 12:25:04 37.2511 -117.1269 326° Northwest 297 342 30,000  Level Los Angeles Center
Tue 12:26:07 37.3211 -117.1850 327° Northwest 298 343 30,000  Level Los Angeles Center
Tue 12:27:09 37.3781 -117.2561 315° West 292 336 30,000  Level Los Angeles Center
Tue 12:28:11 37.3886 -117.3511 278° West 279 321 30,000  Level Los Angeles Center
Tue 12:29:13 37.3872 -117.4486 269° West 279 321 30,000  Level Los Angeles Center
Tue 12:30:15 37.3861 -117.5633 269° West 278 320 30,000  Level Los Angeles Center
Tue 12:31:35 37.3850 -117.6772 269° West 270 311 30,000  Level Oakland Center
Tue 12:32:37 37.3842 -117.7708 269° West 269 310 30,000  Level Oakland Center
Tue 12:33:39 37.3836 -117.8653 270° West 269 310 30,000  Level Oakland Center
Tue 12:34:40 37.3814 -117.9794 269° West 270 311 30,000  Level Oakland Center
Tue 12:35:42 37.3808 -118.0750 270° West 270 311 30,000  Level Oakland Center
Tue 12:36:43 37.3800 -118.1703 269° West 272 313 30,000 -241 Level Oakland Center
Tue 12:57:16 36.8914 -120.1550 253° West 336 387 24,800 -292 Descending Oakland Center
Tue 12:58:00 36.8730 -120.1645 247° West  Level FlightAware Approximate
Tue 12:58:17 36.8614 -120.2650 251° West 335 386 23,700  Level Oakland Center
Tue 12:59:00 36.8516 -120.2588 256° West  Level FlightAware Approximate
Tue 12:59:19 36.8308 -120.3736 251° West 333 383 22,700  Level Oakland Center
Tue 13:00:00 36.8223 -120.3499 247° West  Level FlightAware Approximate
Tue 13:00:21 36.8006 -120.4794 250° West 334 384 21,600  Level Oakland Center
Tue 13:01:00 36.7939 -120.4413 253° West  Level FlightAware Approximate
Tue 13:01:22 36.7694 -120.5883 250° West 334 384 20,600  Level Oakland Center
Tue 13:02:00 36.7705 -120.5350 253° West  Level FlightAware Approximate
Tue 13:02:24 36.7331 -120.7150 250° West 332 382 19,300  Level Oakland Center
Tue 13:03:25 36.7014 -120.8147 248° West 318 366 18,200 -1,024 Descending Oakland Center
Tue 13:04:27 36.6703 -120.9125 248° West 311 358 17,200 -1,220 Descending Oakland Center
Tue 13:05:28 36.6386 -121.0108 248° West 310 357 15,700 -1,659 Descending Oakland Center
Tue 13:06:30 36.6061 -121.1097 248° West 309 356 13,800 -1,805 Descending Oakland Center
Tue 13:07:31 36.5761 -121.2047 249° West 301 346 12,000 -1,707 Descending Oakland Center
Tue 13:08:33 36.5478 -121.2903 248° West 281 323 10,300 -1,707 Descending Oakland Center
Tue 13:09:34 36.5164 -121.3886 248° West 264 304 8,500 -1,610 Descending Oakland Center
Tue 13:10:36 36.4919 -121.4647 248° West 246 283 7,000 -1,415 Descending Oakland Center
Tue 13:11:37 36.4825 -121.5406 261° West 236 272 5,600 -1,171 Descending Oakland Center
Tue 13:12:39 36.5058 -121.6056 294° West 216 249 4,600 -1,063 Descending Oakland Center
Tue 13:14:49 36.5500 -121.7500 291° West 202 232 2,200 -1,074 Descending Northern Cal TRACON
Tue 13:15:49 36.5667 -121.8000 293° West 158 182 1,200 -1,000 Descending Northern Cal TRACON

Login

Don't have an account? Register now (free) for customized features, flight alerts, and more!